sensor_id;sensor_type;location;lat;lon;timestamp;P1;durP1;ratioP1;P2;durP2;ratioP2
59846;SDS011;45728;48.788;2.302;2023-04-03T00:01:16;18.73;;;16.23;;
59846;SDS011;45728;48.788;2.302;2023-04-03T00:03:42;19.40;;;17.10;;
59846;SDS011;45728;48.788;2.302;2023-04-03T00:06:09;19.40;;;17.35;;
59846;SDS011;45728;48.788;2.302;2023-04-03T00:08:36;18.73;;;16.73;;
59846;SDS011;45728;48.788;2.302;2023-04-03T00:11:03;18.23;;;16.30;;
59846;SDS011;45728;48.788;2.302;2023-04-03T00:13:29;20.92;;;17.65;;
59846;SDS011;45728;48.788;2.302;2023-04-03T00:15:56;21.88;;;19.08;;
59846;SDS011;45728;48.788;2.302;2023-04-03T00:18:22;25.30;;;20.35;;
59846;SDS011;45728;48.788;2.302;2023-04-03T00:20:48;23.30;;;19.40;;
59846;SDS011;45728;48.788;2.302;2023-04-03T00:23:15;21.30;;;18.83;;
59846;SDS011;45728;48.788;2.302;2023-04-03T00:25:41;22.13;;;19.08;;
59846;SDS011;45728;48.788;2.302;2023-04-03T00:28:08;22.88;;;19.75;;
59846;SDS011;45728;48.788;2.302;2023-04-03T00:30:34;21.92;;;18.65;;
59846;SDS011;45728;48.788;2.302;2023-04-03T00:33:00;21.13;;;18.33;;
59846;SDS011;45728;48.788;2.302;2023-04-03T00:35:27;23.52;;;18.40;;
59846;SDS011;45728;48.788;2.302;2023-04-03T00:37:54;20.45;;;18.27;;
59846;SDS011;45728;48.788;2.302;2023-04-03T00:40:21;20.38;;;18.15;;
59846;SDS011;45728;48.788;2.302;2023-04-03T00:42:50;21.58;;;19.27;;
59846;SDS011;45728;48.788;2.302;2023-04-03T00:45:29;19.95;;;17.80;;
59846;SDS011;45728;48.788;2.302;2023-04-03T00:48:01;21.40;;;18.60;;
59846;SDS011;45728;48.788;2.302;2023-04-03T00:50:31;22.88;;;19.35;;
59846;SDS011;45728;48.788;2.302;2023-04-03T00:52:59;25.27;;;19.23;;
59846;SDS011;45728;48.788;2.302;2023-04-03T00:55:26;21.98;;;18.25;;
59846;SDS011;45728;48.788;2.302;2023-04-03T00:57:53;21.65;;;19.33;;
59846;SDS011;45728;48.788;2.302;2023-04-03T01:00:22;22.42;;;19.15;;
59846;SDS011;45728;48.788;2.302;2023-04-03T01:02:50;21.30;;;17.55;;
59846;SDS011;45728;48.788;2.302;2023-04-03T01:05:17;20.90;;;18.77;;
59846;SDS011;45728;48.788;2.302;2023-04-03T01:07:45;20.13;;;17.87;;
59846;SDS011;45728;48.788;2.302;2023-04-03T01:10:14;21.30;;;18.63;;
59846;SDS011;45728;48.788;2.302;2023-04-03T01:12:41;20.98;;;18.35;;
59846;SDS011;45728;48.788;2.302;2023-04-03T01:15:11;22.70;;;19.73;;
59846;SDS011;45728;48.788;2.302;2023-04-03T01:17:49;22.08;;;19.77;;
59846;SDS011;45728;48.788;2.302;2023-04-03T01:25:40;22.70;;;20.30;;
59846;SDS011;45728;48.788;2.302;2023-04-03T01:33:40;21.42;;;18.38;;
59846;SDS011;45728;48.788;2.302;2023-04-03T01:36:07;21.35;;;18.70;;
59846;SDS011;45728;48.788;2.302;2023-04-03T01:38:35;21.27;;;17.58;;
59846;SDS011;45728;48.788;2.302;2023-04-03T01:41:01;21.10;;;18.77;;
59846;SDS011;45728;48.788;2.302;2023-04-03T01:43:27;23.58;;;19.85;;
59846;SDS011;45728;48.788;2.302;2023-04-03T01:45:53;21.05;;;18.77;;
59846;SDS011;45728;48.788;2.302;2023-04-03T01:48:20;23.17;;;18.95;;
59846;SDS011;45728;48.788;2.302;2023-04-03T01:50:46;22.73;;;19.10;;
59846;SDS011;45728;48.788;2.302;2023-04-03T01:53:12;22.33;;;18.55;;
59846;SDS011;45728;48.788;2.302;2023-04-03T01:55:38;20.35;;;17.88;;
59846;SDS011;45728;48.788;2.302;2023-04-03T01:58:05;19.05;;;17.05;;
59846;SDS011;45728;48.788;2.302;2023-04-03T02:00:31;20.98;;;18.10;;
59846;SDS011;45728;48.788;2.302;2023-04-03T02:02:57;23.90;;;18.73;;
59846;SDS011;45728;48.788;2.302;2023-04-03T02:05:23;21.80;;;19.40;;
59846;SDS011;45728;48.788;2.302;2023-04-03T02:07:49;23.25;;;19.67;;
59846;SDS011;45728;48.788;2.302;2023-04-03T02:10:15;22.38;;;19.20;;
59846;SDS011;45728;48.788;2.302;2023-04-03T02:12:41;23.00;;;19.60;;
59846;SDS011;45728;48.788;2.302;2023-04-03T02:15:07;24.75;;;20.75;;
59846;SDS011;45728;48.788;2.302;2023-04-03T02:17:34;23.33;;;20.25;;
59846;SDS011;45728;48.788;2.302;2023-04-03T02:20:00;22.92;;;19.75;;
59846;SDS011;45728;48.788;2.302;2023-04-03T02:22:27;23.80;;;20.35;;
59846;SDS011;45728;48.788;2.302;2023-04-03T02:24:53;24.83;;;20.10;;
59846;SDS011;45728;48.788;2.302;2023-04-03T02:27:19;22.95;;;18.67;;
59846;SDS011;45728;48.788;2.302;2023-04-03T02:29:45;26.75;;;20.42;;
59846;SDS011;45728;48.788;2.302;2023-04-03T02:32:11;23.98;;;20.58;;
59846;SDS011;45728;48.788;2.302;2023-04-03T02:34:37;22.90;;;20.02;;
59846;SDS011;45728;48.788;2.302;2023-04-03T02:37:03;24.52;;;19.50;;
59846;SDS011;45728;48.788;2.302;2023-04-03T02:39:29;23.40;;;19.80;;
59846;SDS011;45728;48.788;2.302;2023-04-03T02:41:55;23.20;;;18.58;;
59846;SDS011;45728;48.788;2.302;2023-04-03T02:44:21;21.13;;;18.30;;
59846;SDS011;45728;48.788;2.302;2023-04-03T02:46:49;23.60;;;19.63;;
59846;SDS011;45728;48.788;2.302;2023-04-03T02:49:15;24.33;;;19.92;;
59846;SDS011;45728;48.788;2.302;2023-04-03T02:51:41;19.88;;;17.77;;
59846;SDS011;45728;48.788;2.302;2023-04-03T02:54:07;21.13;;;18.70;;
59846;SDS011;45728;48.788;2.302;2023-04-03T02:56:34;24.30;;;17.40;;
59846;SDS011;45728;48.788;2.302;2023-04-03T02:59:00;22.10;;;17.83;;
59846;SDS011;45728;48.788;2.302;2023-04-03T03:01:26;19.08;;;17.05;;
59846;SDS011;45728;48.788;2.302;2023-04-03T03:03:57;19.65;;;17.50;;
59846;SDS011;45728;48.788;2.302;2023-04-03T03:06:24;19.50;;;17.35;;
59846;SDS011;45728;48.788;2.302;2023-04-03T03:08:50;20.23;;;17.77;;
59846;SDS011;45728;48.788;2.302;2023-04-03T03:11:16;18.10;;;16.17;;
59846;SDS011;45728;48.788;2.302;2023-04-03T03:13:42;19.73;;;16.77;;
59846;SDS011;45728;48.788;2.302;2023-04-03T03:16:08;19.77;;;16.48;;
59846;SDS011;45728;48.788;2.302;2023-04-03T03:18:35;18.80;;;16.77;;
59846;SDS011;45728;48.788;2.302;2023-04-03T03:21:02;18.17;;;15.98;;
59846;SDS011;45728;48.788;2.302;2023-04-03T03:23:29;17.90;;;15.45;;
59846;SDS011;45728;48.788;2.302;2023-04-03T03:25:58;20.08;;;15.57;;
59846;SDS011;45728;48.788;2.302;2023-04-03T03:28:26;17.47;;;15.07;;
59846;SDS011;45728;48.788;2.302;2023-04-03T03:30:52;16.98;;;15.05;;
59846;SDS011;45728;48.788;2.302;2023-04-03T03:33:18;17.67;;;15.80;;
59846;SDS011;45728;48.788;2.302;2023-04-03T03:35:45;16.85;;;14.75;;
59846;SDS011;45728;48.788;2.302;2023-04-03T03:38:11;16.67;;;14.98;;
59846;SDS011;45728;48.788;2.302;2023-04-03T03:40:37;16.30;;;14.60;;
59846;SDS011;45728;48.788;2.302;2023-04-03T03:43:03;16.90;;;13.85;;
59846;SDS011;45728;48.788;2.302;2023-04-03T03:45:30;15.48;;;13.88;;
59846;SDS011;45728;48.788;2.302;2023-04-03T03:47:56;16.63;;;14.52;;
59846;SDS011;45728;48.788;2.302;2023-04-03T03:50:22;15.88;;;14.25;;
59846;SDS011;45728;48.788;2.302;2023-04-03T03:52:48;16.00;;;13.98;;
59846;SDS011;45728;48.788;2.302;2023-04-03T03:55:15;14.32;;;12.85;;
59846;SDS011;45728;48.788;2.302;2023-04-03T03:57:41;15.52;;;13.88;;
59846;SDS011;45728;48.788;2.302;2023-04-03T04:00:07;16.10;;;13.80;;
59846;SDS011;45728;48.788;2.302;2023-04-03T04:02:34;15.63;;;14.02;;
59846;SDS011;45728;48.788;2.302;2023-04-03T04:05:00;17.27;;;14.25;;
59846;SDS011;45728;48.788;2.302;2023-04-03T04:07:26;14.52;;;13.13;;
59846;SDS011;45728;48.788;2.302;2023-04-03T04:09:53;16.67;;;14.32;;
59846;SDS011;45728;48.788;2.302;2023-04-03T04:12:20;15.48;;;13.82;;
59846;SDS011;45728;48.788;2.302;2023-04-03T04:14:46;18.23;;;14.18;;
59846;SDS011;45728;48.788;2.302;2023-04-03T04:17:13;14.98;;;13.38;;
59846;SDS011;45728;48.788;2.302;2023-04-03T04:19:40;16.35;;;14.57;;
59846;SDS011;45728;48.788;2.302;2023-04-03T04:22:06;15.65;;;12.60;;
59846;SDS011;45728;48.788;2.302;2023-04-03T04:24:32;14.35;;;12.70;;
59846;SDS011;45728;48.788;2.302;2023-04-03T04:26:58;15.38;;;13.77;;
59846;SDS011;45728;48.788;2.302;2023-04-03T04:29:24;15.10;;;13.38;;
59846;SDS011;45728;48.788;2.302;2023-04-03T04:31:50;15.90;;;12.88;;
59846;SDS011;45728;48.788;2.302;2023-04-03T04:34:16;15.02;;;13.27;;
59846;SDS011;45728;48.788;2.302;2023-04-03T04:36:43;15.75;;;13.20;;
59846;SDS011;45728;48.788;2.302;2023-04-03T04:39:09;15.18;;;12.98;;
59846;SDS011;45728;48.788;2.302;2023-04-03T04:41:35;14.45;;;12.95;;
59846;SDS011;45728;48.788;2.302;2023-04-03T04:44:01;14.77;;;13.10;;
59846;SDS011;45728;48.788;2.302;2023-04-03T04:46:27;15.80;;;13.43;;
59846;SDS011;45728;48.788;2.302;2023-04-03T04:48:53;15.40;;;13.40;;
59846;SDS011;45728;48.788;2.302;2023-04-03T04:51:19;15.23;;;13.63;;
59846;SDS011;45728;48.788;2.302;2023-04-03T04:53:45;14.57;;;13.07;;
59846;SDS011;45728;48.788;2.302;2023-04-03T04:56:11;15.73;;;13.77;;
59846;SDS011;45728;48.788;2.302;2023-04-03T04:58:38;14.25;;;12.60;;
59846;SDS011;45728;48.788;2.302;2023-04-03T05:01:07;14.18;;;12.68;;
59846;SDS011;45728;48.788;2.302;2023-04-03T05:03:35;14.18;;;12.73;;
59846;SDS011;45728;48.788;2.302;2023-04-03T05:06:02;14.57;;;12.75;;
59846;SDS011;45728;48.788;2.302;2023-04-03T05:08:29;14.88;;;13.25;;
59846;SDS011;45728;48.788;2.302;2023-04-03T05:10:55;15.57;;;13.38;;
59846;SDS011;45728;48.788;2.302;2023-04-03T05:13:21;14.88;;;13.30;;
59846;SDS011;45728;48.788;2.302;2023-04-03T05:15:47;13.98;;;12.52;;
59846;SDS011;45728;48.788;2.302;2023-04-03T05:18:13;14.43;;;13.00;;
59846;SDS011;45728;48.788;2.302;2023-04-03T05:20:39;15.32;;;13.68;;
59846;SDS011;45728;48.788;2.302;2023-04-03T05:23:05;14.30;;;7.40;;
59846;SDS011;45728;48.788;2.302;2023-04-03T05:25:32;13.57;;;12.18;;
59846;SDS011;45728;48.788;2.302;2023-04-03T05:27:58;14.40;;;12.98;;
59846;SDS011;45728;48.788;2.302;2023-04-03T05:30:24;13.30;;;12.00;;
59846;SDS011;45728;48.788;2.302;2023-04-03T05:32:50;13.95;;;12.55;;
59846;SDS011;45728;48.788;2.302;2023-04-03T05:35:16;13.90;;;12.50;;
59846;SDS011;45728;48.788;2.302;2023-04-03T05:37:42;13.23;;;11.93;;
59846;SDS011;45728;48.788;2.302;2023-04-03T05:40:08;14.30;;;12.80;;
59846;SDS011;45728;48.788;2.302;2023-04-03T05:42:35;14.10;;;12.70;;
59846;SDS011;45728;48.788;2.302;2023-04-03T05:45:01;14.85;;;12.98;;
59846;SDS011;45728;48.788;2.302;2023-04-03T05:47:27;13.48;;;12.07;;
59846;SDS011;45728;48.788;2.302;2023-04-03T05:49:53;13.50;;;12.07;;
59846;SDS011;45728;48.788;2.302;2023-04-03T05:55:15;14.30;;;12.65;;
59846;SDS011;45728;48.788;2.302;2023-04-03T05:57:41;14.07;;;12.40;;
59846;SDS011;45728;48.788;2.302;2023-04-03T06:00:08;12.48;;;7.20;;
59846;SDS011;45728;48.788;2.302;2023-04-03T06:02:38;12.88;;;11.40;;
59846;SDS011;45728;48.788;2.302;2023-04-03T06:05:04;13.70;;;12.30;;
59846;SDS011;45728;48.788;2.302;2023-04-03T06:07:30;13.15;;;11.85;;
59846;SDS011;45728;48.788;2.302;2023-04-03T06:09:56;13.68;;;12.00;;
59846;SDS011;45728;48.788;2.302;2023-04-03T06:12:23;15.07;;;12.55;;
59846;SDS011;45728;48.788;2.302;2023-04-03T06:14:49;14.57;;;13.18;;
59846;SDS011;45728;48.788;2.302;2023-04-03T06:17:15;13.90;;;12.60;;
59846;SDS011;45728;48.788;2.302;2023-04-03T06:19:43;12.02;;;7.00;;
59846;SDS011;45728;48.788;2.302;2023-04-03T06:22:09;14.23;;;12.80;;
59846;SDS011;45728;48.788;2.302;2023-04-03T06:24:37;14.35;;;12.80;;
59846;SDS011;45728;48.788;2.302;2023-04-03T06:27:03;14.48;;;12.23;;
59846;SDS011;45728;48.788;2.302;2023-04-03T06:29:30;15.10;;;13.05;;
59846;SDS011;45728;48.788;2.302;2023-04-03T06:31:56;14.70;;;12.80;;
59846;SDS011;45728;48.788;2.302;2023-04-03T06:34:22;15.05;;;12.48;;
59846;SDS011;45728;48.788;2.302;2023-04-03T06:36:48;14.15;;;12.70;;
59846;SDS011;45728;48.788;2.302;2023-04-03T06:39:17;14.35;;;12.85;;
59846;SDS011;45728;48.788;2.302;2023-04-03T06:41:50;14.18;;;12.77;;
59846;SDS011;45728;48.788;2.302;2023-04-03T06:44:17;13.93;;;12.30;;
59846;SDS011;45728;48.788;2.302;2023-04-03T06:46:43;13.77;;;12.38;;
59846;SDS011;45728;48.788;2.302;2023-04-03T06:49:12;13.57;;;11.70;;
59846;SDS011;45728;48.788;2.302;2023-04-03T06:51:38;15.45;;;12.35;;
59846;SDS011;45728;48.788;2.302;2023-04-03T06:54:05;15.23;;;12.02;;
59846;SDS011;45728;48.788;2.302;2023-04-03T06:56:33;14.87;;;11.93;;
59846;SDS011;45728;48.788;2.302;2023-04-03T06:59:00;13.13;;;11.73;;
59846;SDS011;45728;48.788;2.302;2023-04-03T07:01:26;12.38;;;11.10;;
59846;SDS011;45728;48.788;2.302;2023-04-03T07:03:54;14.48;;;12.15;;
59846;SDS011;45728;48.788;2.302;2023-04-03T07:06:20;13.88;;;12.48;;
59846;SDS011;45728;48.788;2.302;2023-04-03T07:08:47;13.10;;;11.85;;
59846;SDS011;45728;48.788;2.302;2023-04-03T07:11:14;13.07;;;11.77;;
59846;SDS011;45728;48.788;2.302;2023-04-03T07:13:40;12.75;;;11.45;;
59846;SDS011;45728;48.788;2.302;2023-04-03T07:16:07;14.20;;;11.40;;
59846;SDS011;45728;48.788;2.302;2023-04-03T07:18:34;13.48;;;12.00;;
59846;SDS011;45728;48.788;2.302;2023-04-03T07:21:00;12.38;;;11.15;;
59846;SDS011;45728;48.788;2.302;2023-04-03T07:23:27;13.05;;;11.80;;
59846;SDS011;45728;48.788;2.302;2023-04-03T07:25:54;12.63;;;11.30;;
59846;SDS011;45728;48.788;2.302;2023-04-03T07:28:20;12.23;;;11.10;;
59846;SDS011;45728;48.788;2.302;2023-04-03T07:30:49;12.15;;;10.93;;
59846;SDS011;45728;48.788;2.302;2023-04-03T07:33:18;15.20;;;10.60;;
59846;SDS011;45728;48.788;2.302;2023-04-03T07:35:46;12.43;;;10.85;;
59846;SDS011;45728;48.788;2.302;2023-04-03T07:38:12;11.25;;;9.82;;
59846;SDS011;45728;48.788;2.302;2023-04-03T07:40:38;10.88;;;9.77;;
59846;SDS011;45728;48.788;2.302;2023-04-03T07:43:05;11.48;;;10.30;;
59846;SDS011;45728;48.788;2.302;2023-04-03T07:45:31;11.70;;;10.50;;
59846;SDS011;45728;48.788;2.302;2023-04-03T07:48:00;11.45;;;10.35;;
59846;SDS011;45728;48.788;2.302;2023-04-03T07:50:26;12.15;;;10.07;;
59846;SDS011;45728;48.788;2.302;2023-04-03T07:52:52;11.13;;;10.02;;
59846;SDS011;45728;48.788;2.302;2023-04-03T07:55:21;11.55;;;9.82;;
59846;SDS011;45728;48.788;2.302;2023-04-03T07:57:47;11.18;;;10.02;;
59846;SDS011;45728;48.788;2.302;2023-04-03T08:00:13;10.18;;;9.18;;
59846;SDS011;45728;48.788;2.302;2023-04-03T08:02:40;10.55;;;9.13;;
59846;SDS011;45728;48.788;2.302;2023-04-03T08:05:06;12.05;;;9.70;;
59846;SDS011;45728;48.788;2.302;2023-04-03T08:07:32;11.98;;;8.77;;
59846;SDS011;45728;48.788;2.302;2023-04-03T08:09:59;11.23;;;9.80;;
59846;SDS011;45728;48.788;2.302;2023-04-03T08:12:25;11.90;;;9.38;;
59846;SDS011;45728;48.788;2.302;2023-04-03T08:14:51;10.93;;;8.50;;
59846;SDS011;45728;48.788;2.302;2023-04-03T08:17:17;9.40;;;8.40;;
59846;SDS011;45728;48.788;2.302;2023-04-03T08:19:43;9.27;;;8.38;;
59846;SDS011;45728;48.788;2.302;2023-04-03T08:22:09;9.25;;;8.10;;
59846;SDS011;45728;48.788;2.302;2023-04-03T08:24:36;9.55;;;8.48;;
59846;SDS011;45728;48.788;2.302;2023-04-03T08:27:02;10.35;;;8.23;;
59846;SDS011;45728;48.788;2.302;2023-04-03T08:29:28;7.53;;;6.80;;
59846;SDS011;45728;48.788;2.302;2023-04-03T08:31:54;8.73;;;6.68;;
59846;SDS011;45728;48.788;2.302;2023-04-03T08:34:20;7.40;;;6.60;;
59846;SDS011;45728;48.788;2.302;2023-04-03T08:36:46;6.60;;;6.00;;
59846;SDS011;45728;48.788;2.302;2023-04-03T08:39:13;6.55;;;5.90;;
59846;SDS011;45728;48.788;2.302;2023-04-03T08:41:40;7.85;;;5.13;;
59846;SDS011;45728;48.788;2.302;2023-04-03T08:47:09;6.30;;;4.40;;
59846;SDS011;45728;48.788;2.302;2023-04-03T08:49:42;7.25;;;4.72;;
59846;SDS011;45728;48.788;2.302;2023-04-03T08:52:17;6.43;;;4.55;;
59846;SDS011;45728;48.788;2.302;2023-04-03T08:54:50;5.03;;;4.35;;
59846;SDS011;45728;48.788;2.302;2023-04-03T08:57:20;4.43;;;4.00;;
59846;SDS011;45728;48.788;2.302;2023-04-03T08:59:54;4.70;;;4.30;;
59846;SDS011;45728;48.788;2.302;2023-04-03T09:02:31;4.70;;;4.22;;
59846;SDS011;45728;48.788;2.302;2023-04-03T09:04:59;4.43;;;4.03;;
59846;SDS011;45728;48.788;2.302;2023-04-03T09:07:35;4.50;;;4.10;;
59846;SDS011;45728;48.788;2.302;2023-04-03T09:10:08;4.85;;;4.25;;
59846;SDS011;45728;48.788;2.302;2023-04-03T09:12:39;5.10;;;4.40;;
59846;SDS011;45728;48.788;2.302;2023-04-03T09:23:51;7.32;;;4.22;;
59846;SDS011;45728;48.788;2.302;2023-04-03T09:26:05;5.22;;;4.30;;
59846;SDS011;45728;48.788;2.302;2023-04-03T09:28:40;5.78;;;4.18;;
59846;SDS011;45728;48.788;2.302;2023-04-03T09:31:42;4.45;;;4.05;;
59846;SDS011;45728;48.788;2.302;2023-04-03T09:34:10;5.18;;;4.40;;
59846;SDS011;45728;48.788;2.302;2023-04-03T09:36:48;6.68;;;4.00;;
59846;SDS011;45728;48.788;2.302;2023-04-03T09:39:16;5.68;;;4.18;;
59846;SDS011;45728;48.788;2.302;2023-04-03T09:44:38;3.75;;;3.40;;
59846;SDS011;45728;48.788;2.302;2023-04-03T09:47:18;4.20;;;3.58;;
59846;SDS011;45728;48.788;2.302;2023-04-03T09:52:46;6.57;;;4.18;;
59846;SDS011;45728;48.788;2.302;2023-04-03T09:57:45;5.53;;;3.92;;
59846;SDS011;45728;48.788;2.302;2023-04-03T10:00:22;6.07;;;3.78;;
59846;SDS011;45728;48.788;2.302;2023-04-03T10:02:56;6.18;;;4.03;;
59846;SDS011;45728;48.788;2.302;2023-04-03T10:07:51;5.27;;;4.00;;
59846;SDS011;45728;48.788;2.302;2023-04-03T10:10:31;17.02;;;3.88;;
59846;SDS011;45728;48.788;2.302;2023-04-03T10:13:03;4.50;;;4.10;;
59846;SDS011;45728;48.788;2.302;2023-04-03T10:15:34;5.90;;;4.28;;
59846;SDS011;45728;48.788;2.302;2023-04-03T10:18:13;4.35;;;3.65;;
59846;SDS011;45728;48.788;2.302;2023-04-03T10:20:46;4.43;;;3.55;;
59846;SDS011;45728;48.788;2.302;2023-04-03T10:23:24;4.82;;;4.03;;
59846;SDS011;45728;48.788;2.302;2023-04-03T10:28:52;3.88;;;3.10;;
59846;SDS011;45728;48.788;2.302;2023-04-03T10:34:04;4.65;;;3.90;;
59846;SDS011;45728;48.788;2.302;2023-04-03T10:44:38;6.05;;;3.65;;
59846;SDS011;45728;48.788;2.302;2023-04-03T10:47:17;7.82;;;3.58;;
59846;SDS011;45728;48.788;2.302;2023-04-03T10:52:55;4.30;;;3.35;;
59846;SDS011;45728;48.788;2.302;2023-04-03T10:58:29;5.35;;;3.30;;
59846;SDS011;45728;48.788;2.302;2023-04-03T11:01:00;4.15;;;3.60;;
59846;SDS011;45728;48.788;2.302;2023-04-03T11:03:36;5.40;;;3.65;;
59846;SDS011;45728;48.788;2.302;2023-04-03T11:06:12;7.25;;;3.75;;
59846;SDS011;45728;48.788;2.302;2023-04-03T11:08:45;4.20;;;3.40;;
59846;SDS011;45728;48.788;2.302;2023-04-03T11:11:22;4.47;;;3.00;;
59846;SDS011;45728;48.788;2.302;2023-04-03T11:14:01;4.32;;;3.28;;
59846;SDS011;45728;48.788;2.302;2023-04-03T11:16:42;6.20;;;3.72;;
59846;SDS011;45728;48.788;2.302;2023-04-03T11:19:15;5.63;;;3.10;;
59846;SDS011;45728;48.788;2.302;2023-04-03T11:21:54;5.22;;;3.53;;
59846;SDS011;45728;48.788;2.302;2023-04-03T11:24:29;5.18;;;3.22;;
59846;SDS011;45728;48.788;2.302;2023-04-03T11:27:00;4.53;;;3.10;;
59846;SDS011;45728;48.788;2.302;2023-04-03T11:29:31;7.15;;;3.95;;
59846;SDS011;45728;48.788;2.302;2023-04-03T11:34:40;4.85;;;2.63;;
59846;SDS011;45728;48.788;2.302;2023-04-03T11:37:22;3.92;;;2.60;;
59846;SDS011;45728;48.788;2.302;2023-04-03T11:40:04;3.20;;;2.63;;
59846;SDS011;45728;48.788;2.302;2023-04-03T11:42:52;6.07;;;4.40;;
59846;SDS011;45728;48.788;2.302;2023-04-03T11:53:42;4.50;;;2.70;;
59846;SDS011;45728;48.788;2.302;2023-04-03T11:56:27;4.18;;;2.92;;
59846;SDS011;45728;48.788;2.302;2023-04-03T12:04:23;4.95;;;2.30;;
59846;SDS011;45728;48.788;2.302;2023-04-03T12:14:54;6.45;;;2.92;;
59846;SDS011;45728;48.788;2.302;2023-04-03T12:17:25;4.35;;;2.55;;
59846;SDS011;45728;48.788;2.302;2023-04-03T12:19:52;8.07;;;2.42;;
59846;SDS011;45728;48.788;2.302;2023-04-03T12:22:19;3.10;;;2.28;;
59846;SDS011;45728;48.788;2.302;2023-04-03T12:24:48;3.70;;;2.30;;
59846;SDS011;45728;48.788;2.302;2023-04-03T12:29:56;4.72;;;2.33;;
59846;SDS011;45728;48.788;2.302;2023-04-03T12:35:37;5.60;;;2.67;;
59846;SDS011;45728;48.788;2.302;2023-04-03T12:44:17;4.07;;;2.08;;
59846;SDS011;45728;48.788;2.302;2023-04-03T12:47:04;3.10;;;2.03;;
59846;SDS011;45728;48.788;2.302;2023-04-03T12:49:53;3.38;;;2.00;;
59846;SDS011;45728;48.788;2.302;2023-04-03T12:55:16;4.35;;;1.90;;
59846;SDS011;45728;48.788;2.302;2023-04-03T12:57:43;3.08;;;2.05;;
59846;SDS011;45728;48.788;2.302;2023-04-03T13:02:59;4.05;;;2.50;;
59846;SDS011;45728;48.788;2.302;2023-04-03T13:05:29;4.20;;;2.20;;
59846;SDS011;45728;48.788;2.302;2023-04-03T13:08:03;4.15;;;2.28;;
59846;SDS011;45728;48.788;2.302;2023-04-03T13:10:35;4.18;;;2.15;;
59846;SDS011;45728;48.788;2.302;2023-04-03T13:13:17;5.45;;;2.20;;
59846;SDS011;45728;48.788;2.302;2023-04-03T13:15:45;4.40;;;2.17;;
59846;SDS011;45728;48.788;2.302;2023-04-03T13:23:22;4.03;;;2.20;;
59846;SDS011;45728;48.788;2.302;2023-04-03T13:25:49;4.43;;;2.10;;
59846;SDS011;45728;48.788;2.302;2023-04-03T13:28:18;4.05;;;2.15;;
59846;SDS011;45728;48.788;2.302;2023-04-03T13:33:28;4.55;;;2.13;;
59846;SDS011;45728;48.788;2.302;2023-04-03T13:38:29;4.82;;;2.72;;
59846;SDS011;45728;48.788;2.302;2023-04-03T13:41:01;3.00;;;2.03;;
59846;SDS011;45728;48.788;2.302;2023-04-03T13:43:46;6.00;;;2.45;;
59846;SDS011;45728;48.788;2.302;2023-04-03T13:48:40;6.05;;;2.40;;
59846;SDS011;45728;48.788;2.302;2023-04-03T13:53:47;2.95;;;2.30;;
59846;SDS011;45728;48.788;2.302;2023-04-03T13:56:36;3.03;;;2.10;;
59846;SDS011;45728;48.788;2.302;2023-04-03T14:06:48;2.40;;;2.20;;
59846;SDS011;45728;48.788;2.302;2023-04-03T14:09:16;3.42;;;2.00;;
59846;SDS011;45728;48.788;2.302;2023-04-03T14:11:44;2.67;;;2.40;;
59846;SDS011;45728;48.788;2.302;2023-04-03T14:14:29;2.43;;;2.07;;
59846;SDS011;45728;48.788;2.302;2023-04-03T14:17:02;3.95;;;2.50;;
59846;SDS011;45728;48.788;2.302;2023-04-03T14:19:36;3.30;;;2.25;;
59846;SDS011;45728;48.788;2.302;2023-04-03T14:22:16;5.22;;;2.58;;
59846;SDS011;45728;48.788;2.302;2023-04-03T14:24:44;2.67;;;2.20;;
59846;SDS011;45728;48.788;2.302;2023-04-03T14:27:16;3.85;;;2.17;;
59846;SDS011;45728;48.788;2.302;2023-04-03T14:29:51;5.07;;;2.30;;
59846;SDS011;45728;48.788;2.302;2023-04-03T14:32:18;3.85;;;2.28;;
59846;SDS011;45728;48.788;2.302;2023-04-03T14:34:45;3.72;;;2.28;;
59846;SDS011;45728;48.788;2.302;2023-04-03T14:37:13;6.13;;;2.20;;
59846;SDS011;45728;48.788;2.302;2023-04-03T14:39:42;6.90;;;2.40;;
59846;SDS011;45728;48.788;2.302;2023-04-03T14:42:16;5.10;;;3.13;;
59846;SDS011;45728;48.788;2.302;2023-04-03T14:44:44;2.92;;;2.30;;
59846;SDS011;45728;48.788;2.302;2023-04-03T14:47:11;3.25;;;2.30;;
59846;SDS011;45728;48.788;2.302;2023-04-03T14:49:39;4.78;;;2.20;;
59846;SDS011;45728;48.788;2.302;2023-04-03T14:52:06;4.25;;;2.25;;
59846;SDS011;45728;48.788;2.302;2023-04-03T14:54:41;3.05;;;2.00;;
59846;SDS011;45728;48.788;2.302;2023-04-03T14:57:08;4.22;;;2.30;;
59846;SDS011;45728;48.788;2.302;2023-04-03T15:02:05;3.08;;;2.20;;
59846;SDS011;45728;48.788;2.302;2023-04-03T15:04:57;3.42;;;2.00;;
59846;SDS011;45728;48.788;2.302;2023-04-03T15:07:25;3.97;;;2.10;;
59846;SDS011;45728;48.788;2.302;2023-04-03T15:09:53;4.45;;;2.63;;
59846;SDS011;45728;48.788;2.302;2023-04-03T15:12:22;2.58;;;1.95;;
59846;SDS011;45728;48.788;2.302;2023-04-03T15:14:49;3.05;;;2.08;;
59846;SDS011;45728;48.788;2.302;2023-04-03T15:17:21;2.60;;;2.20;;
59846;SDS011;45728;48.788;2.302;2023-04-03T15:19:48;8.38;;;2.30;;
59846;SDS011;45728;48.788;2.302;2023-04-03T15:22:15;3.05;;;2.20;;
59846;SDS011;45728;48.788;2.302;2023-04-03T15:24:45;3.65;;;2.05;;
59846;SDS011;45728;48.788;2.302;2023-04-03T15:27:11;3.92;;;2.20;;
59846;SDS011;45728;48.788;2.302;2023-04-03T15:29:39;4.30;;;2.20;;
59846;SDS011;45728;48.788;2.302;2023-04-03T15:32:06;3.30;;;2.28;;
59846;SDS011;45728;48.788;2.302;2023-04-03T15:34:32;5.90;;;2.47;;
59846;SDS011;45728;48.788;2.302;2023-04-03T15:36:59;4.45;;;2.10;;
59846;SDS011;45728;48.788;2.302;2023-04-03T15:39:25;3.58;;;2.00;;
59846;SDS011;45728;48.788;2.302;2023-04-03T15:41:51;3.60;;;2.30;;
59846;SDS011;45728;48.788;2.302;2023-04-03T15:44:19;2.88;;;2.00;;
59846;SDS011;45728;48.788;2.302;2023-04-03T15:46:46;2.53;;;2.03;;
59846;SDS011;45728;48.788;2.302;2023-04-03T15:49:14;3.50;;;2.42;;
59846;SDS011;45728;48.788;2.302;2023-04-03T15:51:41;4.15;;;1.60;;
59846;SDS011;45728;48.788;2.302;2023-04-03T15:54:08;4.57;;;2.00;;
59846;SDS011;45728;48.788;2.302;2023-04-03T15:56:35;4.40;;;2.00;;
59846;SDS011;45728;48.788;2.302;2023-04-03T15:59:01;4.80;;;1.95;;
59846;SDS011;45728;48.788;2.302;2023-04-03T16:01:27;3.80;;;2.10;;
59846;SDS011;45728;48.788;2.302;2023-04-03T16:03:53;3.72;;;2.03;;
59846;SDS011;45728;48.788;2.302;2023-04-03T16:06:19;2.55;;;2.03;;
59846;SDS011;45728;48.788;2.302;2023-04-03T16:08:46;5.00;;;2.10;;
59846;SDS011;45728;48.788;2.302;2023-04-03T16:11:14;3.58;;;2.08;;
59846;SDS011;45728;48.788;2.302;2023-04-03T16:13:40;3.88;;;2.03;;
59846;SDS011;45728;48.788;2.302;2023-04-03T16:16:07;2.80;;;1.70;;
59846;SDS011;45728;48.788;2.302;2023-04-03T16:18:34;2.83;;;1.80;;
59846;SDS011;45728;48.788;2.302;2023-04-03T16:21:00;3.25;;;1.80;;
59846;SDS011;45728;48.788;2.302;2023-04-03T16:23:27;3.53;;;1.73;;
59846;SDS011;45728;48.788;2.302;2023-04-03T16:25:53;3.97;;;2.33;;
59846;SDS011;45728;48.788;2.302;2023-04-03T16:28:19;4.35;;;2.83;;
59846;SDS011;45728;48.788;2.302;2023-04-03T16:30:45;5.22;;;2.08;;
59846;SDS011;45728;48.788;2.302;2023-04-03T16:33:13;3.35;;;1.90;;
59846;SDS011;45728;48.788;2.302;2023-04-03T16:35:39;2.30;;;1.73;;
59846;SDS011;45728;48.788;2.302;2023-04-03T16:38:07;3.95;;;2.00;;
59846;SDS011;45728;48.788;2.302;2023-04-03T16:40:33;3.63;;;1.90;;
59846;SDS011;45728;48.788;2.302;2023-04-03T16:43:00;3.42;;;1.73;;
59846;SDS011;45728;48.788;2.302;2023-04-03T16:45:27;4.57;;;2.03;;